Time;durP1;ratioP1;P1;durP2;ratioP2;P2;SDS_P1;SDS_P2;PMS_P1;PMS_P2;Temp;Humidity;BMP_temperature;BMP_pressure;BME280_temperature;BME280_humidity;BME280_pressure;Samples;Min_cycle;Max_cycle;Signal;HPM_P1;HPM_P2
2022/02/16 00:00:20;;;;;;;11.70;6.70;;;;;;;7.52;100.00;100299.56;5031296;28;20091;-73
2022/02/16 00:02:48;;;;;;;10.27;6.10;;;;;;;7.51;100.00;100304.00;5029489;28;20092;-73
2022/02/16 00:05:18;;;;;;;13.32;6.38;;;;;;;7.50;100.00;100296.06;5029957;28;20056;-74
2022/02/16 00:07:47;;;;;;;13.18;6.05;;;;;;;7.51;100.00;100298.69;5032276;28;20061;-73
2022/02/16 00:10:17;;;;;;;9.10;5.22;;;;;;;7.50;100.00;100294.28;5030221;28;20057;-74
2022/02/16 00:12:47;;;;;;;14.45;6.22;;;;;;;7.51;100.00;100300.44;5030594;28;20115;-74
2022/02/16 00:15:16;;;;;;;9.00;5.40;;;;;;;7.55;100.00;100286.19;5029592;28;20045;-73
2022/02/16 00:17:48;;;;;;;10.38;5.55;;;;;;;7.48;100.00;100285.50;5029455;28;20107;-74
2022/02/16 00:20:16;;;;;;;11.85;6.38;;;;;;;7.47;100.00;100275.78;5031131;28;20571;-73
2022/02/16 00:22:44;;;;;;;13.65;7.35;;;;;;;7.46;100.00;100279.38;5030077;28;20601;-73
2022/02/16 00:25:12;;;;;;;12.85;6.38;;;;;;;7.46;100.00;100277.56;5027879;28;20188;-73
2022/02/16 00:27:40;;;;;;;13.32;6.65;;;;;;;7.45;100.00;100282.91;5031445;28;20053;-74
2022/02/16 00:30:09;;;;;;;12.40;6.68;;;;;;;7.44;100.00;100274.09;5027933;28;20084;-73
2022/02/16 00:32:37;;;;;;;12.93;6.53;;;;;;;7.44;100.00;100273.19;5027873;28;20118;-73
2022/02/16 00:35:07;;;;;;;14.20;7.03;;;;;;;7.40;100.00;100269.75;5028489;28;20424;-72
2022/02/16 00:37:35;;;;;;;16.05;7.30;;;;;;;7.39;100.00;100260.09;5030029;28;20049;-73
2022/02/16 00:40:04;;;;;;;12.23;6.40;;;;;;;7.37;100.00;100261.03;5030917;28;20057;-73
2022/02/16 00:42:33;;;;;;;12.30;6.68;;;;;;;7.35;100.00;100257.53;5031894;28;20538;-73
2022/02/16 00:45:01;;;;;;;13.85;6.78;;;;;;;7.35;100.00;100247.78;5040042;28;20045;-73
2022/02/16 00:47:30;;;;;;;13.05;6.55;;;;;;;7.36;100.00;100238.94;5031673;28;20357;-73
2022/02/16 00:49:58;;;;;;;13.80;6.95;;;;;;;7.35;100.00;100226.56;5035302;28;20103;-74
2022/02/16 00:52:29;;;;;;;15.57;7.03;;;;;;;7.31;100.00;100222.25;5032623;28;20075;-74
2022/02/16 00:54:57;;;;;;;12.73;6.18;;;;;;;7.27;100.00;100216.19;5032059;28;20044;-74
2022/02/16 00:57:30;;;;;;;17.25;6.75;;;;;;;7.29;100.00;100203.72;5037680;28;20053;-73
2022/02/16 00:59:58;;;;;;;17.23;7.72;;;;;;;7.26;100.00;100205.59;5031194;28;20116;-74
2022/02/16 01:02:29;;;;;;;17.15;7.55;;;;;;;7.30;100.00;100201.94;5029782;28;20057;-74
2022/02/16 01:04:57;;;;;;;16.67;6.72;;;;;;;7.34;100.00;100194.75;5036848;28;20132;-73
2022/02/16 01:07:25;;;;;;;16.88;7.07;;;;;;;7.29;100.00;100179.84;5032411;28;20049;-73
2022/02/16 01:09:55;;;;;;;13.70;6.57;;;;;;;7.34;100.00;100186.78;5037187;28;20128;-70
2022/02/16 01:12:23;;;;;;;14.98;6.72;;;;;;;7.32;100.00;100178.91;5036702;28;20701;-70
2022/02/16 01:14:51;;;;;;;13.23;6.32;;;;;;;7.33;100.00;100175.31;5033038;28;20077;-70
2022/02/16 01:17:19;;;;;;;14.50;6.00;;;;;;;7.33;100.00;100170.00;5031045;28;20099;-69
2022/02/16 01:19:48;;;;;;;13.98;6.68;;;;;;;7.39;100.00;100167.19;5033420;28;20537;-69
2022/02/16 01:22:16;;;;;;;26.27;8.48;;;;;;;7.44;100.00;100169.69;5032049;28;20049;-69
2022/02/16 01:24:48;;;;;;;22.52;8.48;;;;;;;7.40;100.00;100163.59;5033471;28;20610;-69
2022/02/16 01:27:20;;;;;;;17.40;8.25;;;;;;;7.47;100.00;100164.28;5032214;28;20045;-69
2022/02/16 01:29:51;;;;;;;23.80;9.27;;;;;;;7.52;100.00;100151.75;5028278;28;20132;-69
2022/02/16 01:32:20;;;;;;;26.35;8.80;;;;;;;7.55;100.00;100132.22;5034613;28;20143;-68
2022/02/16 01:34:48;;;;;;;23.75;9.98;;;;;;;7.61;100.00;100124.91;5034030;28;20091;-68
2022/02/16 01:37:17;;;;;;;21.63;10.18;;;;;;;7.61;100.00;100121.38;5033009;28;20053;-68
2022/02/16 01:39:48;;;;;;;17.00;7.70;;;;;;;7.55;100.00;100119.78;5031020;28;20266;-68
2022/02/16 01:42:20;;;;;;;16.77;6.07;;;;;;;7.62;100.00;100120.47;5029592;28;20053;-68
2022/02/16 01:44:52;;;;;;;15.43;6.03;;;;;;;7.58;100.00;100098.47;5032942;28;20334;-68
2022/02/16 01:47:23;;;;;;;17.05;7.60;;;;;;;7.57;100.00;100095.84;5035774;28;20102;-69
2022/02/16 01:49:52;;;;;;;22.65;9.63;;;;;;;7.54;100.00;100091.50;5033403;28;20060;-68
2022/02/16 01:52:22;;;;;;;19.98;8.25;;;;;;;7.55;100.00;100087.06;5028118;28;20244;-69
2022/02/16 01:54:52;;;;;;;17.80;9.25;;;;;;;7.51;100.00;100091.63;5036801;28;20041;-69
2022/02/16 01:57:22;;;;;;;17.27;8.88;;;;;;;7.56;100.00;100086.13;5030057;28;20095;-69
2022/02/16 01:59:54;;;;;;;19.00;7.78;;;;;;;7.52;100.00;100082.72;5056402;22;20369;-93
2022/02/16 02:02:30;;;;;;;19.15;8.80;;;;;;;7.53;100.00;100078.28;5060054;28;20132;-93
2022/02/16 02:05:07;;;;;;;19.13;10.40;;;;;;;7.53;100.00;100068.53;5063790;28;20041;-94
2022/02/16 02:07:48;;;;;;;18.48;10.20;;;;;;;7.53;100.00;100049.09;5059218;28;20052;-94
2022/02/16 02:10:26;;;;;;;24.27;10.82;;;;;;;7.56;100.00;100049.84;5067952;28;20223;-94
2022/02/16 02:13:04;;;;;;;21.77;10.40;;;;;;;7.61;100.00;100055.00;5070580;22;20059;-71
2022/02/16 02:15:32;;;;;;;24.25;12.18;;;;;;;7.63;100.00;100048.72;5051905;28;20496;-71
2022/02/16 02:18:00;;;;;;;27.02;12.43;;;;;;;7.65;100.00;100049.53;5055023;28;20071;-71
2022/02/16 02:20:30;;;;;;;31.00;14.82;;;;;;;7.64;100.00;100029.25;5058031;28;20578;-73
2022/02/16 02:22:58;;;;;;;27.02;13.90;;;;;;;7.65;100.00;100033.63;5059825;28;20135;-71
2022/02/16 02:25:26;;;;;;;23.40;12.18;;;;;;;7.69;100.00;100030.88;5059644;28;20105;-71
2022/02/16 02:27:55;;;;;;;24.50;11.77;;;;;;;7.67;100.00;100039.72;5057849;28;20045;-69
2022/02/16 02:30:23;;;;;;;24.23;10.13;;;;;;;7.64;100.00;100036.31;5061276;28;20135;-70
2022/02/16 02:32:51;;;;;;;18.95;10.25;;;;;;;7.70;100.00;100045.88;5058794;28;20052;-72
2022/02/16 02:35:19;;;;;;;22.70;10.50;;;;;;;7.67;100.00;100034.44;5055477;28;20048;-72
2022/02/16 02:37:48;;;;;;;20.35;10.38;;;;;;;7.72;100.00;100022.81;5056411;28;20067;-72
2022/02/16 02:40:16;;;;;;;21.42;11.57;;;;;;;7.75;100.00;100020.91;5055338;28;20044;-72
2022/02/16 02:42:44;;;;;;;19.05;10.23;;;;;;;7.73;100.00;100005.94;5060422;28;20048;-69
2022/02/16 02:45:13;;;;;;;21.85;10.43;;;;;;;7.77;100.00;99991.66;5059314;28;20570;-69
2022/02/16 02:47:42;;;;;;;23.20;10.95;;;;;;;7.76;100.00;99996.06;5061815;28;20064;-68
2022/02/16 02:50:11;;;;;;;19.75;10.25;;;;;;;7.78;100.00;99985.41;5056835;28;20392;-68
2022/02/16 02:52:43;;;;;;;21.77;10.05;;;;;;;7.80;100.00;99981.78;5054305;28;20238;-69
2022/02/16 02:55:14;;;;;;;21.48;11.15;;;;;;;7.88;100.00;99986.81;5057061;28;20451;-69
2022/02/16 02:57:44;;;;;;;21.80;11.40;;;;;;;7.86;100.00;99965.63;5054692;28;20048;-73
2022/02/16 03:00:15;;;;;;;22.55;11.27;;;;;;;7.86;100.00;99980.69;5058611;28;20202;-72
2022/02/16 03:02:43;;;;;;;24.98;11.57;;;;;;;7.88;100.00;99972.69;5058186;28;20472;-72
2022/02/16 03:05:12;;;;;;;20.40;10.68;;;;;;;7.86;100.00;99956.78;5058462;28;20426;-71
2022/02/16 03:07:40;;;;;;;21.38;10.60;;;;;;;7.96;100.00;99965.31;5059067;28;20101;-70
2022/02/16 03:10:10;;;;;;;16.70;8.60;;;;;;;7.93;100.00;99960.09;5059969;28;20076;-72
2022/02/16 03:12:39;;;;;;;17.58;8.95;;;;;;;7.99;100.00;99960.75;5059125;28;20192;-71
2022/02/16 03:15:09;;;;;;;18.02;9.00;;;;;;;7.94;100.00;99953.88;5057501;28;20067;-70
2022/02/16 03:17:37;;;;;;;19.42;10.20;;;;;;;7.95;100.00;99950.28;5054775;28;20500;-71
2022/02/16 03:20:08;;;;;;;16.98;8.93;;;;;;;7.97;100.00;99959.09;5058448;28;20045;-69
2022/02/16 03:22:37;;;;;;;17.48;9.13;;;;;;;7.95;100.00;99945.84;5055970;28;20102;-72
2022/02/16 03:25:06;;;;;;;17.52;9.57;;;;;;;7.99;100.00;99936.84;5054416;28;20131;-72
2022/02/16 03:27:35;;;;;;;21.00;10.00;;;;;;;7.97;100.00;99921.91;5059595;28;20137;-69
2022/02/16 03:30:09;;;;;;;16.63;8.55;;;;;;;7.99;100.00;99917.38;5057645;28;20072;-70
2022/02/16 03:32:37;;;;;;;13.00;7.70;;;;;;;7.95;100.00;99913.97;5053977;28;20083;-70
2022/02/16 03:35:06;;;;;;;12.80;6.97;;;;;;;7.99;100.00;99899.66;5060238;28;20253;-70
2022/02/16 03:37:34;;;;;;;13.52;7.22;;;;;;;7.92;100.00;99886.66;5053421;28;20637;-70
2022/02/16 03:40:05;;;;;;;11.75;6.75;;;;;;;7.90;100.00;99867.22;5056224;28;20085;-69
2022/02/16 03:42:38;;;;;;;9.65;6.18;;;;;;;7.92;100.00;99876.03;5054829;28;20098;-68
2022/02/16 03:45:11;;;;;;;9.95;5.47;;;;;;;7.95;100.00;99873.25;5055328;28;20501;-68
2022/02/16 03:47:44;;;;;;;11.18;5.38;;;;;;;7.87;100.00;99868.22;5052339;28;20179;-67
2022/02/16 03:50:14;;;;;;;9.38;4.80;;;;;;;7.82;100.00;99871.03;5056743;28;20123;-70
2022/02/16 03:52:43;;;;;;;9.73;4.85;;;;;;;7.81;100.00;99852.50;5054847;28;20056;-70
2022/02/16 03:55:11;;;;;;;12.15;4.57;;;;;;;7.85;100.00;99855.00;5056015;28;20106;-71
2022/02/16 03:57:39;;;;;;;8.77;5.32;;;;;;;7.81;100.00;99847.19;5059374;28;20438;-70
2022/02/16 04:00:10;;;;;;;10.93;6.38;;;;;;;7.81;100.00;99842.75;5053988;28;20245;-71
2022/02/16 04:02:38;;;;;;;11.15;5.57;;;;;;;7.87;100.00;99820.41;5057974;28;20053;-71
2022/02/16 04:05:07;;;;;;;10.80;5.50;;;;;;;7.85;100.00;99822.28;5058281;28;20127;-69
2022/02/16 04:07:35;;;;;;;14.13;5.75;;;;;;;7.88;100.00;99811.50;5056140;28;20080;-69
2022/02/16 04:10:03;;;;;;;12.52;6.03;;;;;;;7.84;100.00;99801.94;5060196;28;20049;-70
2022/02/16 04:12:33;;;;;;;14.48;6.97;;;;;;;7.84;100.00;99808.09;5057493;28;20082;-69
2022/02/16 04:15:02;;;;;;;14.05;7.60;;;;;;;7.83;100.00;99800.19;5058298;28;20125;-72
2022/02/16 04:17:32;;;;;;;13.38;7.47;;;;;;;7.81;100.00;99786.97;5057155;28;20052;-70
2022/02/16 04:19:59;;;;;;;14.65;7.38;;;;;;;7.81;100.00;99778.13;5059487;28;20092;-70
2022/02/16 04:22:29;;;;;;;16.20;8.02;;;;;;;7.85;100.00;99780.63;5061854;28;20557;-69
2022/02/16 04:24:57;;;;;;;13.02;8.65;;;;;;;7.83;100.00;99773.63;5065504;28;20168;-68
2022/02/16 04:27:25;;;;;;;15.75;9.40;;;;;;;7.79;100.00;99764.91;5061649;28;20047;-69
2022/02/16 04:29:53;;;;;;;17.25;10.65;;;;;;;7.80;100.00;99776.44;5060930;28;20484;-69
2022/02/16 04:32:21;;;;;;;16.33;9.98;;;;;;;7.76;100.00;99769.47;5061803;28;20040;-68
2022/02/16 04:34:51;;;;;;;15.98;9.23;;;;;;;7.79;100.00;99758.75;5061072;28;20517;-71
2022/02/16 04:37:20;;;;;;;16.23;9.50;;;;;;;7.78;100.00;99736.66;5063595;28;20060;-69
2022/02/16 04:39:48;;;;;;;17.58;9.75;;;;;;;7.78;100.00;99728.69;5060698;28;20072;-72
2022/02/16 04:42:17;;;;;;;16.05;8.95;;;;;;;7.82;100.00;99721.47;5059936;28;20483;-72
2022/02/16 04:44:45;;;;;;;14.90;8.63;;;;;;;7.88;100.00;99712.38;5062235;28;20056;-73
2022/02/16 04:47:13;;;;;;;16.63;7.85;;;;;;;7.86;100.00;99710.63;5060989;28;20381;-71
2022/02/16 04:49:41;;;;;;;14.30;7.88;;;;;;;7.83;100.00;99710.78;5059999;28;20639;-72
2022/02/16 04:52:11;;;;;;;14.15;7.50;;;;;;;7.85;100.00;99694.78;5058766;28;20407;-71
2022/02/16 04:54:39;;;;;;;14.73;8.05;;;;;;;7.85;100.00;99694.78;5062001;28;20056;-71
2022/02/16 04:57:07;;;;;;;14.75;7.85;;;;;;;7.86;100.00;99681.41;5060823;28;20048;-72
2022/02/16 04:59:35;;;;;;;13.32;8.18;;;;;;;7.84;100.00;99685.94;5065153;28;20059;-72
2022/02/16 05:02:06;;;;;;;13.15;6.60;;;;;;;7.89;100.00;99675.13;5060392;28;20144;-69
2022/02/16 05:04:42;;;;;;;11.18;5.90;;;;;;;7.90;100.00;99662.72;5061966;28;20380;-68
2022/02/16 05:07:19;;;;;;;12.18;6.28;;;;;;;7.87;100.00;99655.75;5062567;28;20052;-68
2022/02/16 05:09:51;;;;;;;10.77;6.15;;;;;;;7.92;100.00;99644.94;5057539;28;20051;-69
2022/02/16 05:12:33;;;;;;;10.77;5.97;;;;;;;7.94;100.00;99651.06;5062079;28;20056;-68
2022/02/16 05:15:08;;;;;;;9.68;6.05;;;;;;;8.00;100.00;99645.47;5060492;28;20318;-69
2022/02/16 05:17:42;;;;;;;11.07;5.47;;;;;;;8.00;100.00;99648.13;5056046;28;20237;-68
2022/02/16 05:20:16;;;;;;;10.65;5.97;;;;;;;8.00;100.00;99651.69;5060264;28;20044;-71
2022/02/16 05:22:49;;;;;;;10.77;5.60;;;;;;;8.03;100.00;99635.59;5058078;28;20063;-71
2022/02/16 05:25:20;;;;;;;9.88;5.63;;;;;;;8.03;100.00;99640.91;5061868;28;20131;-69
2022/02/16 05:27:51;;;;;;;11.05;5.78;;;;;;;8.04;100.00;99631.16;5056012;28;20044;-71
2022/02/16 05:30:23;;;;;;;10.05;5.93;;;;;;;8.11;100.00;99616.69;5059940;28;20072;-68
2022/02/16 05:32:55;;;;;;;13.15;6.60;;;;;;;8.06;100.00;99616.00;5059449;28;20053;-68
2022/02/16 05:35:26;;;;;;;15.07;6.78;;;;;;;8.11;100.00;99608.72;5058487;28;20139;-69
2022/02/16 05:38:00;;;;;;;11.27;6.20;;;;;;;8.14;100.00;99597.09;5058632;28;20049;-69
2022/02/16 05:40:33;;;;;;;10.52;6.85;;;;;;;8.16;100.00;99604.06;5060447;28;20136;-69
2022/02/16 05:43:04;;;;;;;11.45;6.72;;;;;;;8.20;100.00;99595.03;5063045;28;20102;-69
2022/02/16 05:45:33;;;;;;;10.20;5.55;;;;;;;8.21;100.00;99585.28;5059767;28;20388;-69
2022/02/16 05:48:04;;;;;;;11.48;6.05;;;;;;;8.22;100.00;99573.72;5043117;28;20056;-69
2022/02/16 05:50:37;;;;;;;10.03;5.63;;;;;;;8.20;100.00;99572.91;5061937;28;20562;-69
2022/02/16 05:53:10;;;;;;;9.98;6.00;;;;;;;8.19;100.00;99565.91;5056529;28;20304;-69
2022/02/16 05:55:41;;;;;;;9.15;5.28;;;;;;;8.27;100.00;99578.84;5059707;28;20507;-70
2022/02/16 05:58:11;;;;;;;9.75;5.07;;;;;;;8.30;100.00;99576.06;5058225;28;20064;-73
2022/02/16 06:00:39;;;;;;;8.90;5.03;;;;;;;8.30;100.00;99592.84;5060578;28;20040;-69
2022/02/16 06:03:07;;;;;;;10.80;5.45;;;;;;;8.36;100.00;99586.41;5060178;28;20131;-68
2022/02/16 06:05:36;;;;;;;8.85;4.78;;;;;;;8.36;100.00;99562.50;5063204;28;20076;-68
2022/02/16 06:08:06;;;;;;;8.23;4.43;;;;;;;8.46;100.00;99547.91;5059166;28;20048;-68
2022/02/16 06:10:35;;;;;;;9.30;4.10;;;;;;;8.44;100.00;99556.88;5056582;28;20282;-70
2022/02/16 06:13:05;;;;;;;7.03;4.13;;;;;;;8.47;100.00;99554.09;5058898;28;20056;-72
2022/02/16 06:15:33;;;;;;;8.10;3.33;;;;;;;8.47;100.00;99554.09;5060235;28;20472;-73
2022/02/16 06:18:01;;;;;;;7.50;3.35;;;;;;;8.49;100.00;99569.03;5060985;28;20067;-70
2022/02/16 06:20:29;;;;;;;8.65;3.67;;;;;;;8.53;100.00;99575.06;5059118;28;20094;-72
2022/02/16 06:22:57;;;;;;;6.00;3.13;;;;;;;8.51;100.00;99567.19;5067497;28;20491;-71
2022/02/16 06:25:25;;;;;;;5.93;2.92;;;;;;;8.54;100.00;99566.19;5061274;28;20063;-73
2022/02/16 06:27:56;;;;;;;7.43;3.78;;;;;;;8.53;100.00;99565.31;5060198;28;20055;-69
2022/02/16 06:30:28;;;;;;;9.00;4.00;;;;;;;8.58;100.00;99559.78;5061283;28;20056;-69
2022/02/16 06:32:57;;;;;;;6.90;3.33;;;;;;;8.58;100.00;99558.00;5056995;28;20075;-69
2022/02/16 06:35:34;;;;;;;13.48;3.60;;;;;;;8.66;100.00;99555.00;5063172;28;20117;-69
2022/02/16 06:38:05;;;;;;;8.77;4.25;;;;;;;8.64;100.00;99562.19;5056967;28;20119;-69
2022/02/16 06:40:37;;;;;;;10.30;3.92;;;;;;;8.65;100.00;99571.91;5060573;28;20060;-69
2022/02/16 06:43:08;;;;;;;6.75;3.60;;;;;;;8.69;100.00;99560.19;5054869;28;20053;-75
2022/02/16 06:45:36;;;;;;;6.72;3.53;;;;;;;8.70;100.00;99575.22;5062881;28;20098;-75
2022/02/16 06:48:04;;;;;;;7.60;4.30;;;;;;;8.67;100.00;99578.00;5057905;28;20052;-73
2022/02/16 06:50:32;;;;;;;8.00;4.10;;;;;;;8.67;100.00;99578.00;5058315;28;20049;-74
2022/02/16 06:53:00;;;;;;;9.60;4.03;;;;;;;8.71;100.00;99589.38;5056224;28;20056;-74
2022/02/16 06:55:28;;;;;;;12.32;4.07;;;;;;;8.73;100.00;99576.88;5055898;28;20093;-74
2022/02/16 06:57:57;;;;;;;7.78;4.05;;;;;;;8.79;100.00;99576.59;5059812;28;20055;-70
2022/02/16 07:00:27;;;;;;;7.55;4.43;;;;;;;8.83;100.00;99572.00;5058782;28;20056;-70
2022/02/16 07:02:55;;;;;;;8.20;4.53;;;;;;;8.83;100.00;99578.19;5055129;28;20050;-74
2022/02/16 07:05:24;;;;;;;9.93;4.72;;;;;;;8.83;100.00;99567.53;5059019;28;20087;-73
2022/02/16 07:07:52;;;;;;;9.57;4.20;;;;;;;8.91;100.00;99567.22;5055085;28;20187;-74
2022/02/16 07:10:20;;;;;;;10.40;5.93;;;;;;;8.90;100.00;99568.97;5056000;28;20078;-75
2022/02/16 07:12:50;;;;;;;12.80;4.82;;;;;;;8.95;100.00;99559.00;5056780;28;20040;-73
2022/02/16 07:15:20;;;;;;;14.00;5.97;;;;;;;8.98;100.00;99566.84;5054428;28;20036;-73
2022/02/16 07:17:49;;;;;;;10.60;5.57;;;;;;;8.98;100.00;99558.88;5055460;28;20505;-74
2022/02/16 07:20:17;;;;;;;15.55;6.13;;;;;;;9.04;100.00;99580.81;5060968;28;20059;-74
2022/02/16 07:22:47;;;;;;;10.95;5.88;;;;;;;9.13;100.00;99575.06;5055192;28;20048;-74
2022/02/16 07:25:16;;;;;;;10.55;5.63;;;;;;;9.18;100.00;99583.72;5057372;28;20056;-73
2022/02/16 07:28:06;;;;;;;13.23;5.82;;;;;;;9.22;100.00;99555.16;5058362;28;20672;-73
2022/02/16 07:30:34;;;;;;;15.88;7.38;;;;;;;9.24;100.00;99572.75;5057995;28;20478;-74
2022/02/16 07:33:03;;;;;;;16.70;7.88;;;;;;;9.26;100.00;99576.25;5057642;28;20084;-72
2022/02/16 07:35:31;;;;;;;18.45;9.45;;;;;;;9.32;100.00;99581.25;5058573;28;20492;-73
2022/02/16 07:37:59;;;;;;;14.40;6.50;;;;;;;9.37;100.00;99583.72;5056287;28;20052;-70
2022/02/16 07:40:29;;;;;;;16.52;6.63;;;;;;;9.42;100.00;99586.16;5055147;28;20072;-71
2022/02/16 07:42:56;;;;;;;23.33;9.40;;;;;;;9.42;100.00;99589.69;5058186;28;20052;-71
2022/02/16 07:45:25;;;;;;;21.77;8.50;;;;;;;9.44;100.00;99602.91;5057642;28;20098;-74
2022/02/16 07:47:52;;;;;;;19.70;8.38;;;;;;;9.47;100.00;99592.13;5063191;28;20033;-73
2022/02/16 07:50:22;;;;;;;17.42;6.95;;;;;;;9.48;100.00;99621.34;5055729;28;20063;-72
2022/02/16 07:52:50;;;;;;;21.88;8.20;;;;;;;9.46;100.00;99619.69;5054579;28;20365;-73
2022/02/16 07:55:19;;;;;;;16.20;5.15;;;;;;;9.51;100.00;99623.00;5061868;28;20155;-71
2022/02/16 07:57:47;;;;;;;15.73;4.97;;;;;;;9.52;100.00;99633.56;5061679;28;20055;-71
2022/02/16 08:00:15;;;;;;;21.77;5.60;;;;;;;9.53;100.00;99624.66;5057973;28;20472;-72
2022/02/16 08:02:43;;;;;;;12.88;4.22;;;;;;;9.58;100.00;99637.75;5060521;28;20048;-72
2022/02/16 08:05:11;;;;;;;21.83;5.45;;;;;;;9.57;100.00;99636.03;5061913;28;20060;-71
2022/02/16 08:07:41;;;;;;;17.08;4.30;;;;;;;9.58;100.00;99627.09;5062709;28;20040;-68
2022/02/16 08:10:10;;;;;;;12.45;4.03;;;;;;;9.59;100.00;99635.97;5061591;28;20060;-69
2022/02/16 08:12:46;;;;;;;16.90;4.57;;;;;;;9.61;100.00;99629.63;5056831;28;20052;-69
2022/02/16 08:15:14;;;;;;;20.08;4.35;;;;;;;9.61;100.00;99634.09;5059332;28;20076;-68
2022/02/16 08:17:43;;;;;;;11.13;3.15;;;;;;;9.68;100.00;99632.84;5059917;28;20060;-69
2022/02/16 08:20:13;;;;;;;18.15;4.60;;;;;;;9.70;100.00;99641.63;5061881;28;20139;-70
2022/02/16 08:22:43;;;;;;;22.00;4.15;;;;;;;9.72;100.00;99642.41;5060957;28;20526;-70
2022/02/16 08:25:13;;;;;;;16.05;3.92;;;;;;;9.73;100.00;99639.69;5058214;28;20114;-68
2022/02/16 08:27:45;;;;;;;15.30;4.90;;;;;;;9.77;100.00;99624.41;5060513;28;20136;-68
2022/02/16 08:30:14;;;;;;;19.83;5.05;;;;;;;9.83;100.00;99628.59;5061850;28;20479;-68
2022/02/16 08:32:42;;;;;;;16.45;3.80;;;;;;;9.90;100.00;99616.69;5059755;28;20053;-68
2022/02/16 08:35:12;;;;;;;15.68;4.20;;;;;;;9.89;100.00;99626.50;5060416;28;20110;-69
2022/02/16 08:37:41;;;;;;;16.88;4.03;;;;;;;9.98;100.00;99619.84;5059562;28;20557;-68
2022/02/16 08:40:13;;;;;;;17.38;4.18;;;;;;;10.02;100.00;99608.09;5061951;28;20057;-67
2022/02/16 08:42:42;;;;;;;21.38;4.97;;;;;;;10.10;100.00;99611.25;5055496;28;20075;-68
2022/02/16 08:45:11;;;;;;;22.10;4.47;;;;;;;10.20;100.00;99617.00;5057435;28;20492;-68
2022/02/16 08:47:41;;;;;;;24.88;5.57;;;;;;;10.24;100.00;99623.03;5061145;28;20048;-68
2022/02/16 08:50:12;;;;;;;20.40;4.10;;;;;;;10.27;100.00;99628.22;5060126;28;20049;-67
2022/02/16 08:52:42;;;;;;;16.33;3.67;;;;;;;10.27;100.00;99629.06;5060285;28;20488;-68
2022/02/16 08:55:12;;;;;;;18.85;4.72;;;;;;;10.37;100.00;99621.50;5059129;28;20452;-67
2022/02/16 08:57:42;;;;;;;23.35;4.13;;;;;;;10.37;100.00;99631.28;5059310;28;20063;-68
2022/02/16 09:00:11;;;;;;;24.98;4.72;;;;;;;10.42;100.00;99637.25;5058731;28;20106;-68
2022/02/16 09:02:41;;;;;;;18.70;4.28;;;;;;;10.42;100.00;99648.81;5058470;28;20056;-68
2022/02/16 09:05:18;;;;;;;17.50;4.28;;;;;;;10.51;100.00;99649.28;5060502;28;20118;-68
2022/02/16 09:07:51;;;;;;;21.75;3.80;;;;;;;10.60;100.00;99633.66;5057068;28;20064;-71
2022/02/16 09:10:27;;;;;;;15.05;3.42;;;;;;;10.68;100.00;99635.09;5060637;28;20249;-69
2022/02/16 09:12:55;;;;;;;26.45;6.03;;;;;;;10.67;100.00;99636.03;5059280;28;20131;-69
2022/02/16 09:15:26;;;;;;;27.65;5.10;;;;;;;10.77;100.00;99634.59;5060314;28;20048;-70
2022/02/16 09:17:55;;;;;;;20.20;4.20;;;;;;;10.76;100.00;99641.75;5061920;28;20051;-71
2022/02/16 09:20:23;;;;;;;23.40;4.72;;;;;;;10.76;100.00;99654.22;5061836;28;20738;-69
2022/02/16 09:22:52;;;;;;;16.85;4.22;;;;;;;10.78;100.00;99645.19;5063332;28;20044;-69
2022/02/16 09:25:21;;;;;;;22.67;4.05;;;;;;;10.86;100.00;99650.13;5057884;28;20052;-69
2022/02/16 09:27:53;;;;;;;17.27;3.92;;;;;;;10.88;100.00;99637.59;5061920;28;20049;-67
2022/02/16 09:30:30;;;;;;;16.55;3.42;;;;;;;10.93;100.00;99638.22;5059302;28;20063;-70
2022/02/16 09:32:58;;;;;;;16.95;3.35;;;;;;;11.03;100.00;99635.91;5061739;28;20168;-69
2022/02/16 09:35:26;;;;;;;12.57;3.03;;;;;;;11.12;100.00;99626.56;5060212;28;20048;-69
2022/02/16 09:37:54;;;;;;;13.07;3.17;;;;;;;11.19;100.00;99633.28;5061663;28;20217;-71
2022/02/16 09:40:23;;;;;;;11.27;2.70;;;;;;;11.20;100.00;99614.53;5057344;28;20428;-72
2022/02/16 09:42:53;;;;;;;12.23;4.05;;;;;;;11.21;100.00;99626.06;5061382;28;20044;-72
2022/02/16 09:45:21;;;;;;;11.80;3.63;;;;;;;11.19;100.00;99634.13;5056632;28;20056;-72
2022/02/16 09:47:55;;;;;;;19.95;3.55;;;;;;;11.25;100.00;99642.75;5062804;28;20131;-68
2022/02/16 09:50:26;;;;;;;;;;;;;;;11.29;100.00;99625.63;5055739;28;20057;-67
2022/02/16 09:53:05;;;;;;;16.60;4.57;;;;;;;11.37;100.00;99621.63;5058052;28;19936;-67
2022/02/16 09:55:37;;;;;;;15.02;3.13;;;;;;;11.41;100.00;99619.63;5057034;28;20351;-69
2022/02/16 09:58:19;;;;;;;16.35;3.83;;;;;;;11.45;100.00;99617.66;5061381;28;20285;-68
2022/02/16 10:01:06;;;;;;;18.08;3.58;;;;;;;11.45;100.00;99623.84;5061285;28;20047;-68
2022/02/16 10:03:40;;;;;;;14.93;3.40;;;;;;;11.43;100.00;99633.75;5059260;28;20045;-67
2022/02/16 10:06:44;;;;;;;19.80;4.00;;;;;;;11.37;100.00;99620.72;5058976;28;20090;-68
2022/02/16 10:09:29;;;;;;;12.10;2.90;;;;;;;11.40;100.00;99617.91;5061470;28;20060;-72
2022/02/16 10:11:59;;;;;;;12.27;2.85;;;;;;;11.38;100.00;99641.16;5060255;28;20080;-71
2022/02/16 10:14:30;;;;;;;11.32;2.83;;;;;;;11.29;100.00;99622.94;5058122;28;20040;-72
2022/02/16 10:17:02;;;;;;;14.10;3.30;;;;;;;11.29;100.00;99629.19;5059486;28;20056;-73
2022/02/16 10:19:49;;;;;;;15.40;3.17;;;;;;;11.20;100.00;99613.63;5060485;28;20044;-68
2022/02/16 10:22:24;;;;;;;14.93;3.47;;;;;;;11.18;100.00;99596.84;5059050;28;20051;-69
2022/02/16 10:25:11;;;;;;;10.75;3.20;;;;;;;11.08;100.00;99598.28;5061136;28;20055;-68
2022/02/16 10:28:07;;;;;;;23.20;3.28;;;;;;;10.96;100.00;99606.00;5058668;28;20519;-72
2022/02/16 10:30:42;;;;;;;17.02;4.30;;;;;;;10.99;100.00;99611.19;5059572;28;20537;-73
2022/02/16 10:33:21;;;;;;;19.95;4.20;;;;;;;10.94;100.00;99607.03;5058185;28;20560;-73
2022/02/16 10:35:50;;;;;;;18.15;4.28;;;;;;;10.91;100.00;99601.84;5059269;28;20102;-74
2022/02/16 10:38:18;;;;;;;23.63;3.83;;;;;;;10.87;100.00;99608.31;5059630;28;20139;-73
2022/02/16 10:40:59;;;;;;;21.05;4.32;;;;;;;10.83;100.00;99604.94;5056910;28;20080;-73
2022/02/16 10:43:32;;;;;;;20.52;5.05;;;;;;;10.86;100.00;99610.09;5057565;28;20076;-73
2022/02/16 10:46:17;;;;;;;19.52;4.55;;;;;;;10.81;100.00;99612.16;5059139;28;20071;-70
2022/02/16 10:48:48;;;;;;;26.60;5.75;;;;;;;10.80;100.00;99607.78;5058131;28;20102;-71
2022/02/16 10:51:45;;;;;;;25.23;5.82;;;;;;;10.78;100.00;99601.66;5056542;28;20447;-70
2022/02/16 10:54:17;;;;;;;27.45;6.35;;;;;;;10.78;100.00;99612.31;5055306;28;20048;-74
2022/02/16 10:56:46;;;;;;;19.85;4.93;;;;;;;10.70;100.00;99633.19;5059856;28;20052;-74
2022/02/16 10:59:15;;;;;;;22.50;6.20;;;;;;;10.71;100.00;99657.13;5058209;28;20071;-74
2022/02/16 11:01:45;;;;;;;25.13;4.68;;;;;;;10.74;100.00;99661.44;5057210;28;20045;-74
2022/02/16 11:04:15;;;;;;;22.23;5.15;;;;;;;10.71;100.00;99650.91;5057383;28;20529;-74
2022/02/16 11:06:44;;;;;;;19.95;4.70;;;;;;;10.68;100.00;99651.09;5059411;28;20060;-73
2022/02/16 11:09:19;;;;;;;19.95;5.03;;;;;;;10.62;100.00;99658.47;5055740;28;20052;-74
2022/02/16 11:11:48;;;;;;;24.50;4.85;;;;;;;10.54;100.00;99630.44;5059755;28;20396;-74
2022/02/16 11:14:24;;;;;;;22.73;5.05;;;;;;;10.54;100.00;99633.09;5058709;28;20051;-70
2022/02/16 11:17:09;;;;;;;23.45;4.95;;;;;;;10.55;100.00;99625.03;5058198;28;20159;-70
2022/02/16 11:19:47;;;;;;;22.08;4.63;;;;;;;10.48;100.00;99634.28;5054632;28;20057;-70
2022/02/16 11:22:22;;;;;;;27.42;5.43;;;;;;;10.53;100.00;99637.59;5059800;28;20080;-74
2022/02/16 11:24:54;;;;;;;20.85;4.65;;;;;;;10.52;100.00;99640.34;5055984;28;20139;-74
2022/02/16 11:27:27;;;;;;;24.92;4.38;;;;;;;10.53;100.00;99618.06;5059208;28;20127;-74
2022/02/16 11:29:57;;;;;;;25.63;5.30;;;;;;;10.58;100.00;99619.53;5061236;28;20159;-74
2022/02/16 11:32:35;;;;;;;28.83;5.85;;;;;;;10.55;100.00;99617.03;5056064;28;20127;-75
2022/02/16 11:35:23;;;;;;;18.33;4.38;;;;;;;10.58;100.00;99622.22;5059562;28;20098;-73
2022/02/16 11:38:07;;;;;;;18.08;4.53;;;;;;;10.56;100.00;99624.09;5057927;28;20097;-75